• Join FlightAware (Why Join?)
  • Login
  • US Flag 
10:18AM EDT


 

Airport Tracker/Info


-or-


 

Live Flight TrackerFlight Track Log ✈ AWE3418 ✈ 18-Apr-2013 ✈ KCMH - KPHL

Flight Track Log - Related Links

Times and Time Zones

All times are in EDT time to prevent confusion due to time zone crossing. See the AWE3418 flight status page for this flight to view local times or setup timezone preferences in your user account.

Time Position Orientation Groundspeed Altitude Reporting Facility
EDT Latitude Longitude Course Direction KTS MPH feet Rate Location/Type
04:52PM 39.9947 -82.9011 81° East 146 168 1,400  Level Indianapolis Center
04:53PM 40.0039 -82.9539 283° West 173 199 3,000 1,560 Climbing Indianapolis Center
04:53PM 40.0089 -82.9956 279° West 204 235 3,800 2,100 Climbing Indianapolis Center
04:54PM 39.9797 -83.0564 238° Southwest 236 272 6,400 2,580 Climbing Indianapolis Center
04:55PM 40.0529 -82.3481 79° East  Level FlightAware Approximate
04:56PM 40.0735 -82.2144 79° East  Level FlightAware Approximate
04:56PM 39.9503 -82.9700 114° Southeast 291 335 9,200  Level Indianapolis Center
04:57PM 40.0921 -82.0803 81° East  Level FlightAware Approximate
04:57PM 39.9564 -82.8517 86° East 321 369 11,800  Level Indianapolis Center
04:58PM 39.9739 -82.7278 80° East 342 394 14,000 2,040 Climbing Indianapolis Center
04:59PM 39.9922 -82.5994 79° East 355 409 16,000 2,100 Climbing Indianapolis Center
05:01PM 40.0319 -82.3131 80° East 369 425 20,600 2,040 Climbing Indianapolis Center
05:02PM 40.0514 -82.1767 79° East 378 435 22,400 1,620 Climbing Indianapolis Center
05:03PM 40.0692 -82.0381 80° East 383 441 24,000 1,560 Climbing Indianapolis Center
05:04PM 40.0889 -81.8967 80° East 391 450 25,600 1,320 Climbing Indianapolis Center
05:05PM 40.1086 -81.7511 80° East 398 458 26,800 660 Climbing Indianapolis Center
05:06PM 40.1281 -81.6008 80° East 414 476 27,000 60 Climbing Indianapolis Center
05:07PM 40.1428 -81.4956 80° East 410 472 27,000  Level Cleveland Center
05:08PM 40.1542 -81.3464 84° East 410 472 27,000  Level Cleveland Center
05:09PM 40.1656 -81.1969 84° East 405 466 27,000  Level Cleveland Center
05:10PM 40.1747 -81.0503 85° East 405 466 27,000  Level Cleveland Center
05:11PM 40.1875 -80.9039 83° East 405 466 27,000  Level Cleveland Center
05:12PM 40.1983 -80.7544 85° East 405 466 27,000 780 Level Cleveland Center
05:13PM 40.2089 -80.6103 84° East 405 466 28,600 960 Climbing Cleveland Center
05:14PM 40.2172 -80.4608 86° East 405 466 29,000 180 Climbing Cleveland Center
05:15PM 40.2275 -80.3139 85° East 405 466 29,000  Level Cleveland Center
05:16PM 40.2394 -80.1506 84° East 405 466 29,000  Level Cleveland Center
05:17PM 40.2492 -80.0036 85° East 407 468 29,000  Level Cleveland Center
05:18PM 40.2586 -79.8567 85° East 407 468 29,000  Level Cleveland Center
05:19PM 40.2681 -79.7069 85° East 407 468 29,000  Level Cleveland Center
05:20PM 40.2772 -79.5597 85° East 407 468 29,000  Level Cleveland Center
05:21PM 40.2842 -79.4128 86° East 407 468 29,000  Level Cleveland Center
05:22PM 40.2911 -79.2794 86° East 407 468 29,000  Level Cleveland Center
05:23PM 40.2978 -79.1322 87° East 407 468 29,000  Level Cleveland Center
05:24PM 40.3061 -78.9850 86° East 407 468 29,000  Level Cleveland Center
05:25PM 40.3144 -78.8350 86° East 407 468 29,000  Level Cleveland Center
05:26PM 40.3161 -78.6881 89° East 407 468 29,000  Level Cleveland Center
05:27PM 40.3156 -78.5244 90° East 407 468 29,000 -540 Level Cleveland Center
05:28PM 40.3147 -78.3775 90° East 402 463 28,000 -1,080 Descending Cleveland Center
05:30PM 40.3125 -78.0803 90° East 412 474 25,800 -960 Descending New York Center
05:31PM 40.3125 -77.9442 90° East 391 450 25,000 -660 Descending New York Center
05:32PM 40.3081 -77.8075 92° East 379 436 24,500 -600 Descending New York Center
05:33PM 40.2931 -77.6725 98° East 379 436 23,800 -780 Descending New York Center
05:34PM 40.2778 -77.5403 99° East 368 423 23,000 -840 Descending New York Center
05:35PM 40.2583 -77.4050 101° East 368 423 22,200 -960 Descending New York Center
05:36PM 40.2425 -77.2783 99° East 368 423 21,100 -1,020 Descending New York Center
05:37PM 40.2269 -77.1464 99° East 363 418 20,200 -960 Descending New York Center
05:38PM 40.2108 -77.0172 99° East 363 418 19,200 -1,080 Descending New York Center
05:39PM 40.1972 -76.8772 97° East 356 410 18,100 -1,140 Descending New York Center
05:40PM 40.1864 -76.7650 97° East 351 404 17,000 -1,140 Descending New York Center
05:41PM 40.1758 -76.6444 96° East 345 397 15,900 -1,260 Descending New York Center
05:42PM 40.1614 -76.5128 98° East 332 382 14,500 -1,260 Descending New York Center
05:43PM 40.1503 -76.3950 97° East 332 382 13,400 -1,080 Descending New York Center
05:43PM 40.1456 -76.3619 101° East 324 373 13,200 -1,080 Descending FAA TRACON SMA TRACON (SMA)
05:43PM 40.1419 -76.3267 98° East 321 369 12,800 -1,080 Descending FAA TRACON SMA TRACON (SMA)
05:44PM 40.1389 -76.2922 97° East 316 364 12,500 -1,080 Descending FAA TRACON SMA TRACON (SMA)
05:44PM 40.1353 -76.2494 96° East 313 360 12,100 -1,200 Descending FAA TRACON SMA TRACON (SMA)
05:44PM 40.1322 -76.2136 96° East 314 361 11,700 -1,080 Descending FAA TRACON SMA TRACON (SMA)
05:45PM 40.1275 -76.1781 100° East 314 361 11,400 -1,080 Descending FAA TRACON SMA TRACON (SMA)
05:45PM 40.1228 -76.1367 98° East 312 359 11,000 -1,200 Descending FAA TRACON SMA TRACON (SMA)
05:45PM 40.1192 -76.1031 98° East 309 356 10,600 -1,080 Descending FAA TRACON SMA TRACON (SMA)
05:46PM 40.1156 -76.0692 98° East 307 353 10,300 -1,080 Descending FAA TRACON SMA TRACON (SMA)
05:46PM 40.1139 -76.0267 93° East 305 351 9,900 -1,200 Descending FAA TRACON SMA TRACON (SMA)
05:46PM 40.1081 -75.9936 103° East 306 352 9,500 -1,080 Descending FAA TRACON SMA TRACON (SMA)
05:47PM 40.1044 -75.9589 98° East 306 352 9,200 -1,080 Descending FAA TRACON SMA TRACON (SMA)
05:47PM 40.1000 -75.9172 98° East 303 349 8,800 -1,080 Descending FAA TRACON SMA TRACON (SMA)
05:47PM 40.0967 -75.8836 97° East 304 350 8,500 -1,080 Descending FAA TRACON SMA TRACON (SMA)
05:48PM 40.0917 -75.8436 99° East 303 349 8,100 -1,200 Descending FAA TRACON SMA TRACON (SMA)
05:48PM 40.0881 -75.8083 98° East 303 349 7,700 -1,080 Descending FAA TRACON SMA TRACON (SMA)
05:48PM 40.0847 -75.7756 98° East 298 343 7,400 -900 Descending FAA TRACON SMA TRACON (SMA)
05:49PM 40.0822 -75.7450 96° East 288 331 7,100 -600 Descending FAA TRACON SMA TRACON (SMA)
05:49PM 40.0808 -75.7075 93° East 262 302 7,000 -180 Descending FAA TRACON SMA TRACON (SMA)
05:49PM 40.0794 -75.6803 94° East 244 281 7,000  Level FAA TRACON SMA TRACON (SMA)
05:50PM 40.0778 -75.6553 95° East 239 275 7,000 -480 Level FAA TRACON SMA TRACON (SMA)
05:50PM 40.0831 -75.6200 79° East 239 275 6,700 -780 Descending FAA TRACON SMA TRACON (SMA)
05:50PM 40.0886 -75.5928 75° East 250 288 6,500 -780 Descending FAA TRACON SMA TRACON (SMA)
05:51PM 40.0939 -75.5656 76° East 250 288 6,200 -780 Descending FAA TRACON SMA TRACON (SMA)
05:51PM 40.1008 -75.5325 75° East 249 287 6,000 -360 Descending FAA TRACON SMA TRACON (SMA)
05:51PM 40.1058 -75.5061 76° East 247 284 6,000  Level FAA TRACON SMA TRACON (SMA)
05:52PM 40.1025 -75.4792 99° East 241 277 6,000  Level FAA TRACON SMA TRACON (SMA)
05:52PM 40.0883 -75.4550 127° Southeast 225 259 6,000  Level FAA TRACON SMA TRACON (SMA)
05:52PM 40.0764 -75.4361 130° Southeast 219 252 6,000  Level FAA TRACON SMA TRACON (SMA)
05:53PM 40.0625 -75.4203 139° Southeast 216 249 6,000  Level FAA TRACON SMA TRACON (SMA)
05:53PM 40.0411 -75.4122 164° South 207 238 6,000  Level FAA TRACON SMA TRACON (SMA)
05:53PM 40.0247 -75.4081 169° South 204 235 6,000  Level FAA TRACON SMA TRACON (SMA)
05:54PM 40.0078 -75.4028 167° South 202 232 6,000  Level FAA TRACON SMA TRACON (SMA)
05:54PM 39.9867 -75.3958 166° South 200 230 6,000  Level FAA TRACON SMA TRACON (SMA)
05:54PM 39.9728 -75.3922 169° South 189 217 6,000  Level FAA TRACON SMA TRACON (SMA)
05:55PM 39.9567 -75.3867 165° South 177 204 6,000  Level FAA TRACON SMA TRACON (SMA)
05:55PM 39.9392 -75.3894 187° South 175 201 6,000  Level FAA TRACON SMA TRACON (SMA)
05:55PM 39.9303 -75.4042 232° Southwest 177 204 6,000  Level FAA TRACON SMA TRACON (SMA)
05:56PM 39.9250 -75.4256 252° West 182 209 6,000  Level FAA TRACON SMA TRACON (SMA)
05:56PM 39.9192 -75.4511 253° West 190 219 6,000  Level FAA TRACON SMA TRACON (SMA)
05:56PM 39.9144 -75.4686 251° West 189 217 6,000  Level FAA TRACON SMA TRACON (SMA)
05:57PM 39.9086 -75.4944 254° West 189 217 6,000  Level FAA TRACON SMA TRACON (SMA)
05:57PM 39.9044 -75.5167 256° West 189 217 6,000  Level FAA TRACON SMA TRACON (SMA)
05:57PM 39.9006 -75.5353 255° West 189 217 6,000  Level FAA TRACON SMA TRACON (SMA)
05:58PM 39.8958 -75.5575 255° West 191 220 6,000  Level FAA TRACON SMA TRACON (SMA)
05:58PM 39.8906 -75.5833 255° West 192 221 6,000 -300 Level FAA TRACON SMA TRACON (SMA)
05:58PM 39.8864 -75.6028 254° West 188 216 5,800 -780 Descending FAA TRACON SMA TRACON (SMA)
05:59PM 39.8825 -75.6194 253° West 168 193 5,500 -1,200 Descending FAA TRACON SMA TRACON (SMA)
05:59PM 39.8667 -75.6250 195° South 141 162 5,000 -780 Descending FAA TRACON SMA TRACON (SMA)
05:59PM 39.8556 -75.6208 164° South 155 178 5,000 -180 Level FAA TRACON SMA TRACON (SMA)
06:00PM 39.8417 -75.6158 165° South 150 173 4,900 -900 Descending FAA TRACON SMA TRACON (SMA)
06:00PM 39.8275 -75.6081 157° South 155 178 4,400 -1,380 Descending FAA TRACON SMA TRACON (SMA)
06:00PM 39.8222 -75.5900 111° Southeast 191 220 4,000 -1,200 Descending FAA TRACON SMA TRACON (SMA)
06:01PM 39.8208 -75.5694 95° East 173 199 3,600 -1,380 Descending FAA TRACON SMA TRACON (SMA)
06:01PM 39.8178 -75.5456 99° East 175 201 3,100 -900 Descending FAA TRACON SMA TRACON (SMA)
06:01PM 39.8153 -75.5275 100° East 177 204 3,000 -180 Descending FAA TRACON SMA TRACON (SMA)
06:02PM 39.8153 -75.5036 90° East 174 200 3,000  Level FAA TRACON SMA TRACON (SMA)
06:02PM 39.8189 -75.4856 75° East 178 205 3,000 -180 Level FAA TRACON SMA TRACON (SMA)
06:02PM 39.8231 -75.4647 75° East 177 204 2,900 -600 Descending FAA TRACON SMA TRACON (SMA)
06:03PM 39.8275 -75.4411 76° East 175 201 2,600 -900 Descending FAA TRACON SMA TRACON (SMA)
06:03PM 39.8314 -75.4225 75° East 172 198 2,300 -780 Descending FAA TRACON SMA TRACON (SMA)
06:03PM 39.8339 -75.4056 79° East 173 199 2,100 -900 Descending FAA TRACON SMA TRACON (SMA)
06:04PM 39.8392 -75.3814 74° East 172 198 1,700 -1,200 Descending FAA TRACON SMA TRACON (SMA)